Anchorage, AK

09:56 PM AKDT ar Ebrill 25, 2018 (GMT -0800)
Government Hill | | Change Station

Elev 94 ft 61.23 °N, 149.89 °W | Updated 5 minutes ago

Mostly Cloudy
Cymylog Yn Bennaf
45.4 °F
Feels Like 42 °F
N
6.0
Gwynt Cyfnewidiol Gwynt from DDw
Gusts 10.0 mph

Heddiw
High -- | Low -- °F
--% Chance of Precip.
Yesterday
High -- | Low -- °F
Precip. -- mod
Gwasgedd 30.04 mod
Gwelededd 10.0 Milltiroedd
Clouds Cymylog Yn Bennaf 9500 ft
Cymylog Yn Bennaf 11000 ft
Oerfel Gwynt 42 °F
Gwlithbwynt 27 °F
Lleithder 48%
Rainfall 0.00 mod
Snow Depth Not available.
6:07 AM 9:49 PM
Waxing Gibbous, 84% visible
METAR PAMR 260553Z 17008G16KT 10SM BKN095 BKN110 07/M04 A3004 RMK AO2 SLP173 60000 T00721039 10106 20072 53012
Gwasgedd 30.04 mod
Gwelededd 10.0 Milltiroedd
Clouds Cymylog Yn Bennaf 9500 ft
Cymylog Yn Bennaf 11000 ft
Oerfel Gwynt 42 °F
Gwlithbwynt 27 °F
Lleithder 48%
Rainfall 0.00 mod
Snow Depth Not available.
6:07 AM 9:49 PM
Waxing Gibbous, 84% visible
METAR PAMR 260553Z 17008G16KT 10SM BKN095 BKN110 07/M04 A3004 RMK AO2 SLP173 60000 T00721039 10106 20072 53012

Get Severe Weather Alerts

Thanks for signing up!

Be on the lookout for a verification email in your inbox.

You'll start receiving the daily forecast at 6 AM.

×

10-Day Weather Forecast

Almanac

Astronomy

Apr. 25, 2018 Rise Set
Actual Time
Civil Twilight
Nautical Twilight
Astronomical Twilight
Moon
Length Of Visible Light
Length of Day
Tomorrow will be .
, % of the Moon is Illuminated

Today's Extremes

State Highs State Lows

Community

WunderPhotos

Category 6

Welcome to Category 6. This is the collective home for Weather Underground's featured writeups by Dr. Jeff Masters (right), Bob Henson (left), Chris Burt, and other regular contributors.

Nearby

Air Quality

  Air Quality AQ Index Pollutant
Not available.

Snow Depth

Station Depth Elevation

Earthquake Activity

City Distance Mag. Time & Date
Minimum magnitude displayed is 2.5.

Coastal Water Temperatures

Lle Tymheredd

Stations

Nearby Weather Stations

Station Location Temp Oerfel Gwynt Gwlithbwynt Lleithder Gwynt Precip. Elev Diweddarwyd Type
                   

Watches & Warnings

There are currently no watches in effect.